sensor_id;sensor_type;location;lat;lon;timestamp;P1;durP1;ratioP1;P2;durP2;ratioP2
21820;SDS011;11073;48.586;12.066;2023-04-06T00:00:25;7.03;;;3.90;;
21820;SDS011;11073;48.586;12.066;2023-04-06T00:03:15;6.20;;;4.20;;
21820;SDS011;11073;48.586;12.066;2023-04-06T00:06:08;6.07;;;4.00;;
21820;SDS011;11073;48.586;12.066;2023-04-06T00:08:57;4.90;;;3.60;;
21820;SDS011;11073;48.586;12.066;2023-04-06T00:11:51;5.33;;;3.63;;
21820;SDS011;11073;48.586;12.066;2023-04-06T00:14:57;5.80;;;3.67;;
21820;SDS011;11073;48.586;12.066;2023-04-06T00:18:13;5.93;;;3.60;;
21820;SDS011;11073;48.586;12.066;2023-04-06T00:21:05;5.30;;;3.13;;
21820;SDS011;11073;48.586;12.066;2023-04-06T00:23:55;8.27;;;3.90;;
21820;SDS011;11073;48.586;12.066;2023-04-06T00:26:49;5.43;;;3.60;;
21820;SDS011;11073;48.586;12.066;2023-04-06T00:29:39;9.60;;;4.30;;
21820;SDS011;11073;48.586;12.066;2023-04-06T00:32:28;5.77;;;4.10;;
21820;SDS011;11073;48.586;12.066;2023-04-06T00:35:18;5.23;;;3.93;;
21820;SDS011;11073;48.586;12.066;2023-04-06T00:38:15;6.77;;;4.27;;
21820;SDS011;11073;48.586;12.066;2023-04-06T00:41:06;6.13;;;4.13;;
21820;SDS011;11073;48.586;12.066;2023-04-06T00:43:56;6.97;;;4.33;;
21820;SDS011;11073;48.586;12.066;2023-04-06T00:46:46;5.87;;;4.00;;
21820;SDS011;11073;48.586;12.066;2023-04-06T00:49:35;6.73;;;4.33;;
21820;SDS011;11073;48.586;12.066;2023-04-06T00:52:25;7.03;;;4.63;;
21820;SDS011;11073;48.586;12.066;2023-04-06T00:55:40;8.80;;;4.50;;
21820;SDS011;11073;48.586;12.066;2023-04-06T00:58:30;9.77;;;4.43;;
21820;SDS011;11073;48.586;12.066;2023-04-06T01:01:25;7.37;;;4.40;;
21820;SDS011;11073;48.586;12.066;2023-04-06T01:04:20;8.47;;;4.10;;
21820;SDS011;11073;48.586;12.066;2023-04-06T01:07:12;5.17;;;4.00;;
21820;SDS011;11073;48.586;12.066;2023-04-06T01:10:10;6.97;;;3.90;;
21820;SDS011;11073;48.586;12.066;2023-04-06T01:13:00;6.07;;;4.03;;
21820;SDS011;11073;48.586;12.066;2023-04-06T01:16:07;7.53;;;4.07;;
21820;SDS011;11073;48.586;12.066;2023-04-06T01:19:07;8.10;;;4.60;;
21820;SDS011;11073;48.586;12.066;2023-04-06T01:22:00;6.77;;;4.00;;
21820;SDS011;11073;48.586;12.066;2023-04-06T01:24:53;7.90;;;4.50;;
21820;SDS011;11073;48.586;12.066;2023-04-06T01:27:47;6.07;;;4.53;;
21820;SDS011;11073;48.586;12.066;2023-04-06T01:30:41;7.73;;;4.43;;
21820;SDS011;11073;48.586;12.066;2023-04-06T01:33:43;6.97;;;3.97;;
21820;SDS011;11073;48.586;12.066;2023-04-06T01:36:37;7.73;;;4.20;;
21820;SDS011;11073;48.586;12.066;2023-04-06T01:39:41;6.50;;;3.97;;
21820;SDS011;11073;48.586;12.066;2023-04-06T01:43:15;8.37;;;4.70;;
21820;SDS011;11073;48.586;12.066;2023-04-06T01:46:19;6.97;;;5.03;;
21820;SDS011;11073;48.586;12.066;2023-04-06T01:49:09;8.27;;;5.60;;
21820;SDS011;11073;48.586;12.066;2023-04-06T01:52:20;7.60;;;4.83;;
21820;SDS011;11073;48.586;12.066;2023-04-06T01:55:12;7.63;;;4.33;;
21820;SDS011;11073;48.586;12.066;2023-04-06T01:58:31;7.87;;;4.50;;
21820;SDS011;11073;48.586;12.066;2023-04-06T02:01:21;7.77;;;4.07;;
21820;SDS011;11073;48.586;12.066;2023-04-06T02:04:15;7.60;;;4.40;;
21820;SDS011;11073;48.586;12.066;2023-04-06T02:07:08;7.33;;;4.93;;
21820;SDS011;11073;48.586;12.066;2023-04-06T02:09:59;8.07;;;4.57;;
21820;SDS011;11073;48.586;12.066;2023-04-06T02:12:55;8.60;;;4.77;;
21820;SDS011;11073;48.586;12.066;2023-04-06T02:15:48;10.37;;;4.30;;
21820;SDS011;11073;48.586;12.066;2023-04-06T02:18:37;6.87;;;4.13;;
21820;SDS011;11073;48.586;12.066;2023-04-06T02:21:28;7.83;;;4.10;;
21820;SDS011;11073;48.586;12.066;2023-04-06T02:24:18;6.30;;;4.37;;
21820;SDS011;11073;48.586;12.066;2023-04-06T02:27:07;6.90;;;4.13;;
21820;SDS011;11073;48.586;12.066;2023-04-06T02:29:56;8.10;;;4.60;;
21820;SDS011;11073;48.586;12.066;2023-04-06T02:32:46;6.63;;;4.50;;
21820;SDS011;11073;48.586;12.066;2023-04-06T02:35:35;6.53;;;4.27;;
21820;SDS011;11073;48.586;12.066;2023-04-06T02:38:25;9.13;;;5.17;;
21820;SDS011;11073;48.586;12.066;2023-04-06T02:41:14;8.87;;;4.63;;
21820;SDS011;11073;48.586;12.066;2023-04-06T02:44:03;6.90;;;4.83;;
21820;SDS011;11073;48.586;12.066;2023-04-06T02:47:04;8.73;;;4.63;;
21820;SDS011;11073;48.586;12.066;2023-04-06T02:49:54;7.83;;;4.97;;
21820;SDS011;11073;48.586;12.066;2023-04-06T02:52:44;8.03;;;4.80;;
21820;SDS011;11073;48.586;12.066;2023-04-06T02:55:33;8.20;;;4.47;;
21820;SDS011;11073;48.586;12.066;2023-04-06T02:58:23;8.60;;;4.50;;
21820;SDS011;11073;48.586;12.066;2023-04-06T03:01:15;5.83;;;4.23;;
21820;SDS011;11073;48.586;12.066;2023-04-06T03:04:05;7.73;;;4.43;;
21820;SDS011;11073;48.586;12.066;2023-04-06T03:07:19;8.57;;;4.33;;
21820;SDS011;11073;48.586;12.066;2023-04-06T03:10:08;8.13;;;4.80;;
21820;SDS011;11073;48.586;12.066;2023-04-06T03:12:58;9.00;;;5.10;;
21820;SDS011;11073;48.586;12.066;2023-04-06T03:16:20;7.97;;;4.30;;
21820;SDS011;11073;48.586;12.066;2023-04-06T03:19:10;6.87;;;4.63;;
21820;SDS011;11073;48.586;12.066;2023-04-06T03:21:59;6.23;;;4.87;;
21820;SDS011;11073;48.586;12.066;2023-04-06T03:24:50;9.13;;;4.83;;
21820;SDS011;11073;48.586;12.066;2023-04-06T03:27:40;10.53;;;5.10;;
21820;SDS011;11073;48.586;12.066;2023-04-06T03:30:33;8.60;;;5.00;;
21820;SDS011;11073;48.586;12.066;2023-04-06T03:33:22;7.83;;;5.30;;
21820;SDS011;11073;48.586;12.066;2023-04-06T03:36:15;8.37;;;4.57;;
21820;SDS011;11073;48.586;12.066;2023-04-06T03:39:04;6.73;;;5.13;;
21820;SDS011;11073;48.586;12.066;2023-04-06T03:41:58;9.67;;;4.60;;
21820;SDS011;11073;48.586;12.066;2023-04-06T03:44:53;12.13;;;4.77;;
21820;SDS011;11073;48.586;12.066;2023-04-06T03:47:43;7.50;;;4.77;;
21820;SDS011;11073;48.586;12.066;2023-04-06T03:50:32;7.17;;;4.93;;
21820;SDS011;11073;48.586;12.066;2023-04-06T03:53:21;8.10;;;4.70;;
21820;SDS011;11073;48.586;12.066;2023-04-06T03:56:10;8.60;;;5.20;;
21820;SDS011;11073;48.586;12.066;2023-04-06T03:59:00;8.87;;;5.37;;
21820;SDS011;11073;48.586;12.066;2023-04-06T04:01:49;8.27;;;5.10;;
21820;SDS011;11073;48.586;12.066;2023-04-06T04:04:39;6.43;;;4.53;;
21820;SDS011;11073;48.586;12.066;2023-04-06T04:07:28;7.50;;;4.90;;
21820;SDS011;11073;48.586;12.066;2023-04-06T04:10:17;7.90;;;4.87;;
21820;SDS011;11073;48.586;12.066;2023-04-06T04:13:06;9.03;;;5.40;;
21820;SDS011;11073;48.586;12.066;2023-04-06T04:15:57;8.40;;;5.07;;
21820;SDS011;11073;48.586;12.066;2023-04-06T04:18:46;7.97;;;5.10;;
21820;SDS011;11073;48.586;12.066;2023-04-06T04:21:41;11.20;;;5.20;;
21820;SDS011;11073;48.586;12.066;2023-04-06T04:24:35;10.03;;;4.77;;
21820;SDS011;11073;48.586;12.066;2023-04-06T04:27:24;8.00;;;4.77;;
21820;SDS011;11073;48.586;12.066;2023-04-06T04:30:14;9.17;;;5.57;;
21820;SDS011;11073;48.586;12.066;2023-04-06T04:33:06;10.33;;;5.73;;
21820;SDS011;11073;48.586;12.066;2023-04-06T04:35:55;9.87;;;5.20;;
21820;SDS011;11073;48.586;12.066;2023-04-06T04:38:48;7.40;;;4.93;;
21820;SDS011;11073;48.586;12.066;2023-04-06T04:41:37;8.63;;;5.13;;
21820;SDS011;11073;48.586;12.066;2023-04-06T04:44:29;7.73;;;4.73;;
21820;SDS011;11073;48.586;12.066;2023-04-06T04:47:20;7.17;;;5.17;;
21820;SDS011;11073;48.586;12.066;2023-04-06T04:50:10;11.13;;;4.67;;
21820;SDS011;11073;48.586;12.066;2023-04-06T04:53:03;8.23;;;5.00;;
21820;SDS011;11073;48.586;12.066;2023-04-06T04:55:53;8.23;;;5.40;;
21820;SDS011;11073;48.586;12.066;2023-04-06T04:58:43;8.10;;;5.40;;
21820;SDS011;11073;48.586;12.066;2023-04-06T05:01:32;12.73;;;5.80;;
21820;SDS011;11073;48.586;12.066;2023-04-06T05:04:39;8.60;;;5.33;;
21820;SDS011;11073;48.586;12.066;2023-04-06T05:07:35;8.37;;;5.23;;
21820;SDS011;11073;48.586;12.066;2023-04-06T05:10:27;10.83;;;5.17;;
21820;SDS011;11073;48.586;12.066;2023-04-06T05:13:19;7.00;;;4.50;;
21820;SDS011;11073;48.586;12.066;2023-04-06T05:16:10;8.07;;;5.13;;
21820;SDS011;11073;48.586;12.066;2023-04-06T05:18:59;8.10;;;5.30;;
21820;SDS011;11073;48.586;12.066;2023-04-06T05:21:58;7.70;;;5.17;;
21820;SDS011;11073;48.586;12.066;2023-04-06T05:24:48;6.23;;;4.43;;
21820;SDS011;11073;48.586;12.066;2023-04-06T05:27:37;7.77;;;5.23;;
21820;SDS011;11073;48.586;12.066;2023-04-06T05:30:37;8.97;;;5.03;;
21820;SDS011;11073;48.586;12.066;2023-04-06T05:33:26;7.77;;;5.23;;
21820;SDS011;11073;48.586;12.066;2023-04-06T05:36:25;10.70;;;5.63;;
21820;SDS011;11073;48.586;12.066;2023-04-06T05:39:15;9.97;;;5.43;;
21820;SDS011;11073;48.586;12.066;2023-04-06T05:42:28;8.50;;;5.60;;
21820;SDS011;11073;48.586;12.066;2023-04-06T05:45:26;10.67;;;5.53;;
21820;SDS011;11073;48.586;12.066;2023-04-06T05:48:16;9.97;;;6.10;;
21820;SDS011;11073;48.586;12.066;2023-04-06T05:51:04;13.30;;;7.70;;
21820;SDS011;11073;48.586;12.066;2023-04-06T05:54:07;9.40;;;6.07;;
21820;SDS011;11073;48.586;12.066;2023-04-06T05:56:57;18.63;;;9.17;;
21820;SDS011;11073;48.586;12.066;2023-04-06T05:59:47;19.60;;;8.17;;
21820;SDS011;11073;48.586;12.066;2023-04-06T06:02:36;16.13;;;8.97;;
21820;SDS011;11073;48.586;12.066;2023-04-06T06:05:26;19.43;;;8.80;;
21820;SDS011;11073;48.586;12.066;2023-04-06T06:08:23;13.23;;;7.83;;
21820;SDS011;11073;48.586;12.066;2023-04-06T06:11:12;21.83;;;8.83;;
21820;SDS011;11073;48.586;12.066;2023-04-06T06:14:02;22.33;;;12.17;;
21820;SDS011;11073;48.586;12.066;2023-04-06T06:16:56;19.97;;;9.70;;
21820;SDS011;11073;48.586;12.066;2023-04-06T06:19:46;17.47;;;7.67;;
21820;SDS011;11073;48.586;12.066;2023-04-06T06:22:36;19.33;;;8.50;;
21820;SDS011;11073;48.586;12.066;2023-04-06T06:25:27;18.37;;;8.57;;
21820;SDS011;11073;48.586;12.066;2023-04-06T06:28:17;19.00;;;8.17;;
21820;SDS011;11073;48.586;12.066;2023-04-06T06:31:06;18.53;;;9.40;;
21820;SDS011;11073;48.586;12.066;2023-04-06T06:33:57;16.43;;;9.80;;
21820;SDS011;11073;48.586;12.066;2023-04-06T06:36:46;19.23;;;8.50;;
21820;SDS011;11073;48.586;12.066;2023-04-06T06:39:43;16.47;;;9.10;;
21820;SDS011;11073;48.586;12.066;2023-04-06T06:42:32;13.93;;;8.83;;
21820;SDS011;11073;48.586;12.066;2023-04-06T06:45:35;21.87;;;9.73;;
21820;SDS011;11073;48.586;12.066;2023-04-06T06:48:24;19.90;;;10.67;;
21820;SDS011;11073;48.586;12.066;2023-04-06T06:51:15;18.47;;;10.80;;
21820;SDS011;11073;48.586;12.066;2023-04-06T06:54:04;15.43;;;8.97;;
21820;SDS011;11073;48.586;12.066;2023-04-06T06:56:55;14.70;;;8.57;;
21820;SDS011;11073;48.586;12.066;2023-04-06T06:59:44;20.27;;;9.77;;
21820;SDS011;11073;48.586;12.066;2023-04-06T07:02:33;15.90;;;9.50;;
21820;SDS011;11073;48.586;12.066;2023-04-06T07:05:22;16.27;;;9.50;;
21820;SDS011;11073;48.586;12.066;2023-04-06T07:08:19;16.03;;;8.27;;
21820;SDS011;11073;48.586;12.066;2023-04-06T07:11:08;14.80;;;8.70;;
21820;SDS011;11073;48.586;12.066;2023-04-06T07:13:56;11.73;;;7.70;;
21820;SDS011;11073;48.586;12.066;2023-04-06T07:16:46;16.93;;;8.43;;
21820;SDS011;11073;48.586;12.066;2023-04-06T07:19:36;16.23;;;11.87;;
21820;SDS011;11073;48.586;12.066;2023-04-06T07:22:25;16.03;;;9.00;;
21820;SDS011;11073;48.586;12.066;2023-04-06T07:25:15;14.70;;;7.87;;
21820;SDS011;11073;48.586;12.066;2023-04-06T07:28:04;17.37;;;8.10;;
21820;SDS011;11073;48.586;12.066;2023-04-06T07:30:53;14.10;;;7.50;;
21820;SDS011;11073;48.586;12.066;2023-04-06T07:33:43;14.87;;;8.43;;
21820;SDS011;11073;48.586;12.066;2023-04-06T07:36:32;15.87;;;8.30;;
21820;SDS011;11073;48.586;12.066;2023-04-06T07:39:21;15.30;;;7.43;;
21820;SDS011;11073;48.586;12.066;2023-04-06T07:42:11;12.70;;;8.47;;
21820;SDS011;11073;48.586;12.066;2023-04-06T07:45:00;14.47;;;8.10;;
21820;SDS011;11073;48.586;12.066;2023-04-06T07:47:49;14.40;;;7.57;;
21820;SDS011;11073;48.586;12.066;2023-04-06T07:50:39;14.57;;;7.83;;
21820;SDS011;11073;48.586;12.066;2023-04-06T07:53:29;14.83;;;7.50;;
21820;SDS011;11073;48.586;12.066;2023-04-06T07:56:18;11.83;;;7.47;;
21820;SDS011;11073;48.586;12.066;2023-04-06T07:59:09;12.33;;;7.77;;
21820;SDS011;11073;48.586;12.066;2023-04-06T08:01:59;14.03;;;7.10;;
21820;SDS011;11073;48.586;12.066;2023-04-06T08:04:47;16.30;;;7.77;;
21820;SDS011;11073;48.586;12.066;2023-04-06T08:07:37;14.03;;;7.70;;
21820;SDS011;11073;48.586;12.066;2023-04-06T08:10:26;11.77;;;7.23;;
21820;SDS011;11073;48.586;12.066;2023-04-06T08:13:15;10.80;;;7.50;;
21820;SDS011;11073;48.586;12.066;2023-04-06T08:16:06;9.73;;;7.20;;
21820;SDS011;11073;48.586;12.066;2023-04-06T08:18:55;11.60;;;6.83;;
21820;SDS011;11073;48.586;12.066;2023-04-06T08:21:44;11.47;;;6.73;;
21820;SDS011;11073;48.586;12.066;2023-04-06T08:24:33;13.43;;;7.57;;
21820;SDS011;11073;48.586;12.066;2023-04-06T08:27:22;10.43;;;6.93;;
21820;SDS011;11073;48.586;12.066;2023-04-06T08:30:11;11.60;;;7.07;;
21820;SDS011;11073;48.586;12.066;2023-04-06T08:33:03;11.77;;;7.10;;
21820;SDS011;11073;48.586;12.066;2023-04-06T08:35:52;12.07;;;6.70;;
21820;SDS011;11073;48.586;12.066;2023-04-06T08:38:41;9.40;;;5.80;;
21820;SDS011;11073;48.586;12.066;2023-04-06T08:41:31;8.13;;;6.07;;
21820;SDS011;11073;48.586;12.066;2023-04-06T08:44:19;9.53;;;6.40;;
21820;SDS011;11073;48.586;12.066;2023-04-06T08:47:08;14.60;;;6.00;;
21820;SDS011;11073;48.586;12.066;2023-04-06T08:49:59;10.00;;;6.50;;
21820;SDS011;11073;48.586;12.066;2023-04-06T08:52:52;13.87;;;7.37;;
21820;SDS011;11073;48.586;12.066;2023-04-06T08:55:41;10.20;;;6.37;;
21820;SDS011;11073;48.586;12.066;2023-04-06T08:58:33;8.57;;;6.27;;
21820;SDS011;11073;48.586;12.066;2023-04-06T09:01:25;6.77;;;5.13;;
21820;SDS011;11073;48.586;12.066;2023-04-06T09:04:15;10.60;;;6.47;;
21820;SDS011;11073;48.586;12.066;2023-04-06T09:07:06;9.40;;;5.77;;
21820;SDS011;11073;48.586;12.066;2023-04-06T09:09:55;10.13;;;6.03;;
21820;SDS011;11073;48.586;12.066;2023-04-06T09:12:44;9.87;;;6.30;;
21820;SDS011;11073;48.586;12.066;2023-04-06T09:15:33;10.60;;;6.03;;
21820;SDS011;11073;48.586;12.066;2023-04-06T09:18:27;11.07;;;5.40;;
21820;SDS011;11073;48.586;12.066;2023-04-06T09:21:17;8.55;;;5.32;;
21820;SDS011;11073;48.586;12.066;2023-04-06T09:24:11;10.85;;;5.65;;
21820;SDS011;11073;48.586;12.066;2023-04-06T09:27:00;7.30;;;5.32;;
21820;SDS011;11073;48.586;12.066;2023-04-06T09:29:49;8.18;;;5.43;;
21820;SDS011;11073;48.586;12.066;2023-04-06T09:32:44;10.43;;;6.03;;
21820;SDS011;11073;48.586;12.066;2023-04-06T09:35:37;9.75;;;6.00;;
21820;SDS011;11073;48.586;12.066;2023-04-06T09:38:29;9.10;;;6.88;;
21820;SDS011;11073;48.586;12.066;2023-04-06T09:41:22;6.80;;;5.95;;
21820;SDS011;11073;48.586;12.066;2023-04-06T09:44:12;8.07;;;5.53;;
21820;SDS011;11073;48.586;12.066;2023-04-06T09:47:03;7.65;;;5.45;;
21820;SDS011;11073;48.586;12.066;2023-04-06T09:49:56;9.57;;;5.75;;
21820;SDS011;11073;48.586;12.066;2023-04-06T09:52:47;8.80;;;6.28;;
21820;SDS011;11073;48.586;12.066;2023-04-06T09:55:40;10.45;;;6.25;;
21820;SDS011;11073;48.586;12.066;2023-04-06T09:58:34;10.38;;;6.00;;
21820;SDS011;11073;48.586;12.066;2023-04-06T10:01:29;7.38;;;6.13;;
21820;SDS011;11073;48.586;12.066;2023-04-06T10:04:24;11.38;;;6.05;;
21820;SDS011;11073;48.586;12.066;2023-04-06T10:07:20;8.52;;;6.20;;
21820;SDS011;11073;48.586;12.066;2023-04-06T10:10:10;10.25;;;7.13;;
21820;SDS011;11073;48.586;12.066;2023-04-06T10:13:02;12.13;;;7.30;;
21820;SDS011;11073;48.586;12.066;2023-04-06T10:15:55;9.05;;;6.70;;
21820;SDS011;11073;48.586;12.066;2023-04-06T10:18:46;7.30;;;6.40;;
21820;SDS011;11073;48.586;12.066;2023-04-06T10:21:39;8.13;;;7.05;;
21820;SDS011;11073;48.586;12.066;2023-04-06T10:24:30;9.00;;;6.72;;
21820;SDS011;11073;48.586;12.066;2023-04-06T10:27:27;8.38;;;6.70;;
21820;SDS011;11073;48.586;12.066;2023-04-06T10:30:16;10.18;;;6.90;;
21820;SDS011;11073;48.586;12.066;2023-04-06T10:33:13;8.02;;;6.78;;
21820;SDS011;11073;48.586;12.066;2023-04-06T10:36:09;9.73;;;7.22;;
21820;SDS011;11073;48.586;12.066;2023-04-06T10:39:00;10.00;;;6.38;;
21820;SDS011;11073;48.586;12.066;2023-04-06T10:41:52;10.02;;;7.22;;
21820;SDS011;11073;48.586;12.066;2023-04-06T10:44:44;10.18;;;7.22;;
21820;SDS011;11073;48.586;12.066;2023-04-06T10:47:38;8.45;;;6.80;;
21820;SDS011;11073;48.586;12.066;2023-04-06T10:50:30;9.02;;;6.20;;
21820;SDS011;11073;48.586;12.066;2023-04-06T10:53:22;10.55;;;6.72;;
21820;SDS011;11073;48.586;12.066;2023-04-06T10:56:13;8.40;;;6.95;;
21820;SDS011;11073;48.586;12.066;2023-04-06T10:59:03;9.00;;;7.20;;
21820;SDS011;11073;48.586;12.066;2023-04-06T11:01:52;8.25;;;7.35;;
21820;SDS011;11073;48.586;12.066;2023-04-06T11:04:43;7.10;;;6.40;;
21820;SDS011;11073;48.586;12.066;2023-04-06T11:07:44;8.85;;;7.68;;
21820;SDS011;11073;48.586;12.066;2023-04-06T11:10:33;8.18;;;6.65;;
21820;SDS011;11073;48.586;12.066;2023-04-06T11:13:22;7.88;;;6.97;;
21820;SDS011;11073;48.586;12.066;2023-04-06T11:16:12;8.20;;;6.63;;
21820;SDS011;11073;48.586;12.066;2023-04-06T11:19:03;9.13;;;7.15;;
21820;SDS011;11073;48.586;12.066;2023-04-06T11:21:54;9.80;;;7.35;;
21820;SDS011;11073;48.586;12.066;2023-04-06T11:24:47;8.95;;;6.05;;
21820;SDS011;11073;48.586;12.066;2023-04-06T11:27:37;9.55;;;7.05;;
21820;SDS011;11073;48.586;12.066;2023-04-06T11:30:26;7.88;;;7.00;;
21820;SDS011;11073;48.586;12.066;2023-04-06T11:33:22;10.98;;;7.40;;
21820;SDS011;11073;48.586;12.066;2023-04-06T11:36:11;8.13;;;6.72;;
21820;SDS011;11073;48.586;12.066;2023-04-06T11:39:03;15.18;;;7.05;;
21820;SDS011;11073;48.586;12.066;2023-04-06T11:41:54;11.73;;;7.43;;
21820;SDS011;11073;48.586;12.066;2023-04-06T11:44:46;7.50;;;6.63;;
21820;SDS011;11073;48.586;12.066;2023-04-06T11:47:37;13.63;;;7.63;;
21820;SDS011;11073;48.586;12.066;2023-04-06T11:50:31;8.48;;;7.15;;
21820;SDS011;11073;48.586;12.066;2023-04-06T11:53:21;8.38;;;7.35;;
21820;SDS011;11073;48.586;12.066;2023-04-06T11:56:09;9.48;;;7.90;;
21820;SDS011;11073;48.586;12.066;2023-04-06T11:59:01;8.13;;;7.03;;
21820;SDS011;11073;48.586;12.066;2023-04-06T12:01:50;8.85;;;6.80;;
21820;SDS011;11073;48.586;12.066;2023-04-06T12:04:39;7.38;;;6.45;;
21820;SDS011;11073;48.586;12.066;2023-04-06T12:07:28;8.85;;;6.57;;
21820;SDS011;11073;48.586;12.066;2023-04-06T12:10:17;9.85;;;7.13;;
21820;SDS011;11073;48.586;12.066;2023-04-06T12:13:06;8.23;;;7.10;;
21820;SDS011;11073;48.586;12.066;2023-04-06T12:15:56;7.80;;;6.55;;
21820;SDS011;11073;48.586;12.066;2023-04-06T12:18:45;8.35;;;6.93;;
21820;SDS011;11073;48.586;12.066;2023-04-06T12:21:34;8.15;;;6.95;;
21820;SDS011;11073;48.586;12.066;2023-04-06T12:24:24;8.68;;;7.60;;
21820;SDS011;11073;48.586;12.066;2023-04-06T12:27:13;7.30;;;6.60;;
21820;SDS011;11073;48.586;12.066;2023-04-06T12:30:02;10.30;;;6.93;;
21820;SDS011;11073;48.586;12.066;2023-04-06T12:32:54;7.63;;;6.93;;
21820;SDS011;11073;48.586;12.066;2023-04-06T12:35:43;7.13;;;6.38;;
21820;SDS011;11073;48.586;12.066;2023-04-06T12:38:31;8.70;;;7.65;;
21820;SDS011;11073;48.586;12.066;2023-04-06T12:41:20;8.88;;;7.05;;
21820;SDS011;11073;48.586;12.066;2023-04-06T12:44:09;7.25;;;6.55;;
21820;SDS011;11073;48.586;12.066;2023-04-06T12:46:58;9.75;;;6.97;;
21820;SDS011;11073;48.586;12.066;2023-04-06T12:49:48;8.68;;;6.30;;
21820;SDS011;11073;48.586;12.066;2023-04-06T12:52:37;6.55;;;5.95;;
21820;SDS011;11073;48.586;12.066;2023-04-06T12:55:29;7.47;;;5.47;;
21820;SDS011;11073;48.586;12.066;2023-04-06T12:58:18;7.85;;;5.72;;
21820;SDS011;11073;48.586;12.066;2023-04-06T13:01:07;7.43;;;5.68;;
21820;SDS011;11073;48.586;12.066;2023-04-06T13:03:57;6.82;;;6.13;;
21820;SDS011;11073;48.586;12.066;2023-04-06T13:06:47;8.73;;;6.25;;
21820;SDS011;11073;48.586;12.066;2023-04-06T13:09:36;8.77;;;6.63;;
21820;SDS011;11073;48.586;12.066;2023-04-06T13:12:25;8.55;;;6.93;;
21820;SDS011;11073;48.586;12.066;2023-04-06T13:15:15;8.60;;;6.03;;
21820;SDS011;11073;48.586;12.066;2023-04-06T13:18:04;9.00;;;6.20;;
21820;SDS011;11073;48.586;12.066;2023-04-06T13:20:54;7.32;;;6.63;;
21820;SDS011;11073;48.586;12.066;2023-04-06T13:23:45;7.07;;;6.38;;
21820;SDS011;11073;48.586;12.066;2023-04-06T13:26:34;6.78;;;6.18;;
21820;SDS011;11073;48.586;12.066;2023-04-06T13:29:23;7.35;;;6.65;;
21820;SDS011;11073;48.586;12.066;2023-04-06T13:32:13;8.82;;;6.60;;
21820;SDS011;11073;48.586;12.066;2023-04-06T13:35:01;9.32;;;6.30;;
21820;SDS011;11073;48.586;12.066;2023-04-06T13:37:50;7.97;;;6.35;;
21820;SDS011;11073;48.586;12.066;2023-04-06T13:40:41;6.90;;;6.18;;
21820;SDS011;11073;48.586;12.066;2023-04-06T13:43:30;6.68;;;5.65;;
21820;SDS011;11073;48.586;12.066;2023-04-06T13:46:19;7.65;;;6.00;;
21820;SDS011;11073;48.586;12.066;2023-04-06T13:49:08;6.68;;;5.80;;
21820;SDS011;11073;48.586;12.066;2023-04-06T13:51:57;7.40;;;6.38;;
21820;SDS011;11073;48.586;12.066;2023-04-06T13:54:47;9.55;;;6.65;;
21820;SDS011;11073;48.586;12.066;2023-04-06T13:57:38;8.63;;;6.38;;
21820;SDS011;11073;48.586;12.066;2023-04-06T14:00:28;6.93;;;6.15;;
21820;SDS011;11073;48.586;12.066;2023-04-06T14:03:16;8.43;;;5.38;;
21820;SDS011;11073;48.586;12.066;2023-04-06T14:06:09;6.65;;;5.60;;
21820;SDS011;11073;48.586;12.066;2023-04-06T14:09:14;7.07;;;6.38;;
21820;SDS011;11073;48.586;12.066;2023-04-06T14:12:03;6.78;;;6.07;;
21820;SDS011;11073;48.586;12.066;2023-04-06T14:14:54;6.85;;;6.15;;
21820;SDS011;11073;48.586;12.066;2023-04-06T14:17:43;10.45;;;6.90;;
21820;SDS011;11073;48.586;12.066;2023-04-06T14:20:32;7.25;;;6.55;;
21820;SDS011;11073;48.586;12.066;2023-04-06T14:23:20;6.68;;;5.95;;
21820;SDS011;11073;48.586;12.066;2023-04-06T14:26:09;8.80;;;6.60;;
21820;SDS011;11073;48.586;12.066;2023-04-06T14:28:58;8.57;;;6.20;;
21820;SDS011;11073;48.586;12.066;2023-04-06T14:31:49;8.30;;;6.82;;
21820;SDS011;11073;48.586;12.066;2023-04-06T14:34:38;6.82;;;6.22;;
21820;SDS011;11073;48.586;12.066;2023-04-06T14:37:27;7.05;;;6.10;;
21820;SDS011;11073;48.586;12.066;2023-04-06T14:40:15;6.82;;;5.97;;
21820;SDS011;11073;48.586;12.066;2023-04-06T14:43:04;7.78;;;6.50;;
21820;SDS011;11073;48.586;12.066;2023-04-06T14:45:53;7.05;;;6.32;;
21820;SDS011;11073;48.586;12.066;2023-04-06T14:48:43;10.30;;;7.00;;
21820;SDS011;11073;48.586;12.066;2023-04-06T14:51:33;7.68;;;6.57;;
21820;SDS011;11073;48.586;12.066;2023-04-06T14:54:23;6.75;;;6.00;;
21820;SDS011;11073;48.586;12.066;2023-04-06T14:57:11;9.15;;;6.28;;
21820;SDS011;11073;48.586;12.066;2023-04-06T15:00:01;7.57;;;6.88;;
21820;SDS011;11073;48.586;12.066;2023-04-06T15:02:51;6.88;;;6.18;;
21820;SDS011;11073;48.586;12.066;2023-04-06T15:05:42;7.78;;;6.70;;
21820;SDS011;11073;48.586;12.066;2023-04-06T15:08:31;8.55;;;7.20;;
21820;SDS011;11073;48.586;12.066;2023-04-06T15:11:20;8.23;;;6.90;;
21820;SDS011;11073;48.586;12.066;2023-04-06T15:14:09;6.97;;;6.22;;
21820;SDS011;11073;48.586;12.066;2023-04-06T15:16:57;6.35;;;5.70;;
21820;SDS011;11073;48.586;12.066;2023-04-06T15:19:47;6.93;;;6.13;;
21820;SDS011;11073;48.586;12.066;2023-04-06T15:22:37;7.60;;;6.60;;
21820;SDS011;11073;48.586;12.066;2023-04-06T15:25:26;8.95;;;6.32;;
21820;SDS011;11073;48.586;12.066;2023-04-06T15:28:14;6.53;;;5.63;;
21820;SDS011;11073;48.586;12.066;2023-04-06T15:31:12;7.65;;;6.50;;
21820;SDS011;11073;48.586;12.066;2023-04-06T15:34:19;7.95;;;6.32;;
21820;SDS011;11073;48.586;12.066;2023-04-06T15:37:08;7.50;;;6.68;;
21820;SDS011;11073;48.586;12.066;2023-04-06T15:39:58;7.95;;;6.93;;
21820;SDS011;11073;48.586;12.066;2023-04-06T15:42:48;7.43;;;5.53;;
21820;SDS011;11073;48.586;12.066;2023-04-06T15:45:37;8.57;;;5.63;;
21820;SDS011;11073;48.586;12.066;2023-04-06T15:48:26;6.93;;;5.68;;
21820;SDS011;11073;48.586;12.066;2023-04-06T15:51:17;6.95;;;5.97;;
21820;SDS011;11073;48.586;12.066;2023-04-06T15:54:07;7.18;;;5.65;;
21820;SDS011;11073;48.586;12.066;2023-04-06T15:56:57;9.63;;;7.25;;
21820;SDS011;11073;48.586;12.066;2023-04-06T15:59:48;9.60;;;6.43;;
21820;SDS011;11073;48.586;12.066;2023-04-06T16:02:37;7.50;;;6.70;;
21820;SDS011;11073;48.586;12.066;2023-04-06T16:05:27;8.68;;;6.55;;
21820;SDS011;11073;48.586;12.066;2023-04-06T16:08:21;7.43;;;6.63;;
21820;SDS011;11073;48.586;12.066;2023-04-06T16:11:09;7.78;;;6.88;;
21820;SDS011;11073;48.586;12.066;2023-04-06T16:14:00;8.85;;;7.10;;
21820;SDS011;11073;48.586;12.066;2023-04-06T16:16:49;6.93;;;6.25;;
21820;SDS011;11073;48.586;12.066;2023-04-06T16:19:40;8.35;;;5.82;;
21820;SDS011;11073;48.586;12.066;2023-04-06T16:22:28;6.60;;;5.90;;
21820;SDS011;11073;48.586;12.066;2023-04-06T16:25:17;8.05;;;6.65;;
21820;SDS011;11073;48.586;12.066;2023-04-06T16:28:06;7.20;;;6.00;;
21820;SDS011;11073;48.586;12.066;2023-04-06T16:30:57;7.15;;;6.32;;
21820;SDS011;11073;48.586;12.066;2023-04-06T16:33:45;7.68;;;5.97;;
21820;SDS011;11073;48.586;12.066;2023-04-06T16:36:34;6.63;;;5.63;;
21820;SDS011;11073;48.586;12.066;2023-04-06T16:39:23;7.95;;;5.93;;
21820;SDS011;11073;48.586;12.066;2023-04-06T16:42:12;6.53;;;5.78;;
21820;SDS011;11073;48.586;12.066;2023-04-06T16:45:02;8.80;;;6.22;;
21820;SDS011;11073;48.586;12.066;2023-04-06T16:47:53;7.07;;;6.13;;
21820;SDS011;11073;48.586;12.066;2023-04-06T16:50:42;7.60;;;6.45;;
21820;SDS011;11073;48.586;12.066;2023-04-06T16:53:32;9.52;;;6.45;;